sensor_id;sensor_type;location;lat;lon;timestamp;P1;durP1;ratioP1;P2;durP2;ratioP2
63953;SDS011;50128;52.094;5.232;2022-09-27T00:01:10;3.7;;;0.9;;
63953;SDS011;50128;52.094;5.232;2022-09-27T00:04:26;5.5;;;0.9;;
63953;SDS011;50128;52.094;5.232;2022-09-27T00:06:05;5.0;;;0.8;;
63953;SDS011;50128;52.094;5.232;2022-09-27T00:07:44;4.5;;;0.9;;
63953;SDS011;50128;52.094;5.232;2022-09-27T00:09:21;5.0;;;0.8;;
63953;SDS011;50128;52.094;5.232;2022-09-27T00:12:36;5.11;;;1.0;;
63953;SDS011;50128;52.094;5.232;2022-09-27T00:14:14;4.0;;;0.9;;
63953;SDS011;50128;52.094;5.232;2022-09-27T00:15:54;4.5;;;0.9;;
63953;SDS011;50128;52.094;5.232;2022-09-27T00:19:09;6.4;;;1.0;;
63953;SDS011;50128;52.094;5.232;2022-09-27T00:20:48;5.3;;;0.9;;
63953;SDS011;50128;52.094;5.232;2022-09-27T00:22:24;4.8;;;0.8;;
63953;SDS011;50128;52.094;5.232;2022-09-27T00:24:01;4.7;;;0.8;;
63953;SDS011;50128;52.094;5.232;2022-09-27T00:27:15;4.0;;;1.0;;
63953;SDS011;50128;52.094;5.232;2022-09-27T00:28:52;5.3;;;1.3;;
63953;SDS011;50128;52.094;5.232;2022-09-27T00:30:28;4.8;;;0.9;;
63953;SDS011;50128;52.094;5.232;2022-09-27T00:33:40;4.41;;;0.8;;
63953;SDS011;50128;52.094;5.232;2022-09-27T00:35:16;5.0;;;0.7;;
63953;SDS011;50128;52.094;5.232;2022-09-27T00:36:52;4.41;;;0.7;;
63953;SDS011;50128;52.094;5.232;2022-09-27T00:40:05;4.41;;;1.11;;
63953;SDS011;50128;52.094;5.232;2022-09-27T00:41:42;5.4;;;0.9;;
63953;SDS011;50128;52.094;5.232;2022-09-27T00:43:21;5.4;;;0.8;;
63953;SDS011;50128;52.094;5.232;2022-09-27T00:45:00;4.0;;;0.9;;
63953;SDS011;50128;52.094;5.232;2022-09-27T00:48:27;3.6;;;0.9;;
63953;SDS011;50128;52.094;5.232;2022-09-27T00:50:08;5.4;;;0.9;;
63953;SDS011;50128;52.094;5.232;2022-09-27T00:51:55;4.91;;;0.8;;
63953;SDS011;50128;52.094;5.232;2022-09-27T00:53:37;5.11;;;1.0;;
63953;SDS011;50128;52.094;5.232;2022-09-27T00:55:19;3.4;;;0.7;;
63953;SDS011;50128;52.094;5.232;2022-09-27T00:58:41;3.4;;;0.7;;
63953;SDS011;50128;52.094;5.232;2022-09-27T01:00:24;5.0;;;1.11;;
63953;SDS011;50128;52.094;5.232;2022-09-27T01:02:00;4.61;;;1.0;;
63953;SDS011;50128;52.094;5.232;2022-09-27T01:05:25;6.7;;;0.9;;
63953;SDS011;50128;52.094;5.232;2022-09-27T01:07:03;3.4;;;0.7;;
63953;SDS011;50128;52.094;5.232;2022-09-27T01:08:40;5.9;;;1.2;;
63953;SDS011;50128;52.094;5.232;2022-09-27T01:10:17;4.0;;;1.0;;
63953;SDS011;50128;52.094;5.232;2022-09-27T01:13:45;5.11;;;0.8;;
63953;SDS011;50128;52.094;5.232;2022-09-27T01:15:36;3.8;;;1.0;;
63953;SDS011;50128;52.094;5.232;2022-09-27T01:17:25;4.0;;;0.9;;
63953;SDS011;50128;52.094;5.232;2022-09-27T01:19:15;4.91;;;1.0;;
63953;SDS011;50128;52.094;5.232;2022-09-27T01:21:17;3.0;;;0.9;;
63953;SDS011;50128;52.094;5.232;2022-09-27T01:23:26;4.61;;;0.8;;
63953;SDS011;50128;52.094;5.232;2022-09-27T01:26:34;5.5;;;1.0;;
63953;SDS011;50128;52.094;5.232;2022-09-27T01:28:44;4.3;;;1.11;;
63953;SDS011;50128;52.094;5.232;2022-09-27T01:30:32;5.3;;;1.11;;
63953;SDS011;50128;52.094;5.232;2022-09-27T01:32:19;5.0;;;1.11;;
63953;SDS011;50128;52.094;5.232;2022-09-27T01:34:06;4.5;;;1.2;;
63953;SDS011;50128;52.094;5.232;2022-09-27T01:35:58;3.8;;;1.0;;
63953;SDS011;50128;52.094;5.232;2022-09-27T01:37:49;5.8;;;1.11;;
63953;SDS011;50128;52.094;5.232;2022-09-27T01:39:39;3.9;;;0.9;;
63953;SDS011;50128;52.094;5.232;2022-09-27T01:41:27;4.5;;;1.0;;
63953;SDS011;50128;52.094;5.232;2022-09-27T01:44:57;5.0;;;1.0;;
63953;SDS011;50128;52.094;5.232;2022-09-27T01:46:40;4.8;;;1.0;;
63953;SDS011;50128;52.094;5.232;2022-09-27T01:48:23;5.4;;;1.0;;
63953;SDS011;50128;52.094;5.232;2022-09-27T01:50:07;4.5;;;1.0;;
63953;SDS011;50128;52.094;5.232;2022-09-27T01:51:49;5.3;;;1.4;;
63953;SDS011;50128;52.094;5.232;2022-09-27T01:55:13;4.5;;;1.0;;
63953;SDS011;50128;52.094;5.232;2022-09-27T01:56:54;5.7;;;1.11;;
63953;SDS011;50128;52.094;5.232;2022-09-27T01:58:36;4.41;;;0.9;;
63953;SDS011;50128;52.094;5.232;2022-09-27T02:00:20;4.2;;;1.0;;
63953;SDS011;50128;52.094;5.232;2022-09-27T02:03:42;6.4;;;1.3;;
63953;SDS011;50128;52.094;5.232;2022-09-27T02:05:24;6.2;;;1.5;;
63953;SDS011;50128;52.094;5.232;2022-09-27T02:07:05;5.0;;;1.11;;
63953;SDS011;50128;52.094;5.232;2022-09-27T02:08:47;4.2;;;1.2;;
63953;SDS011;50128;52.094;5.232;2022-09-27T02:12:10;4.91;;;1.2;;
63953;SDS011;50128;52.094;5.232;2022-09-27T02:13:52;4.91;;;1.11;;
63953;SDS011;50128;52.094;5.232;2022-09-27T02:15:33;6.0;;;1.3;;
63953;SDS011;50128;52.094;5.232;2022-09-27T02:17:29;3.4;;;1.0;;
63953;SDS011;50128;52.094;5.232;2022-09-27T02:19:16;3.9;;;1.11;;
63953;SDS011;50128;52.094;5.232;2022-09-27T02:22:46;4.5;;;0.9;;
63953;SDS011;50128;52.094;5.232;2022-09-27T02:24:31;6.8;;;1.11;;
63953;SDS011;50128;52.094;5.232;2022-09-27T02:26:19;6.4;;;1.2;;
63953;SDS011;50128;52.094;5.232;2022-09-27T02:27:59;5.6;;;1.0;;
63953;SDS011;50128;52.094;5.232;2022-09-27T02:29:52;3.7;;;0.9;;
63953;SDS011;50128;52.094;5.232;2022-09-27T02:31:34;5.2;;;1.3;;
63953;SDS011;50128;52.094;5.232;2022-09-27T02:34:46;4.2;;;1.11;;
63953;SDS011;50128;52.094;5.232;2022-09-27T02:36:25;6.3;;;1.6;;
63953;SDS011;50128;52.094;5.232;2022-09-27T02:38:03;5.5;;;1.4;;
63953;SDS011;50128;52.094;5.232;2022-09-27T02:41:20;5.6;;;1.5;;
63953;SDS011;50128;52.094;5.232;2022-09-27T02:42:57;5.4;;;1.3;;
63953;SDS011;50128;52.094;5.232;2022-09-27T02:44:34;5.4;;;1.3;;
63953;SDS011;50128;52.094;5.232;2022-09-27T02:46:18;6.1;;;1.6;;
63953;SDS011;50128;52.094;5.232;2022-09-27T02:48:38;5.8;;;1.6;;
63953;SDS011;50128;52.094;5.232;2022-09-27T02:50:30;6.5;;;1.6;;
63953;SDS011;50128;52.094;5.232;2022-09-27T02:53:25;7.0;;;1.5;;
63953;SDS011;50128;52.094;5.232;2022-09-27T02:55:13;6.6;;;1.4;;
63953;SDS011;50128;52.094;5.232;2022-09-27T02:57:07;5.7;;;1.3;;
63953;SDS011;50128;52.094;5.232;2022-09-27T02:58:57;5.4;;;1.3;;
63953;SDS011;50128;52.094;5.232;2022-09-27T03:02:31;8.1;;;1.7;;
63953;SDS011;50128;52.094;5.232;2022-09-27T03:04:13;7.4;;;1.7;;
63953;SDS011;50128;52.094;5.232;2022-09-27T03:05:57;6.9;;;1.7;;
63953;SDS011;50128;52.094;5.232;2022-09-27T03:07:39;4.61;;;1.5;;
63953;SDS011;50128;52.094;5.232;2022-09-27T03:09:17;8.81;;;1.9;;
63953;SDS011;50128;52.094;5.232;2022-09-27T03:12:30;7.2;;;1.7;;
63953;SDS011;50128;52.094;5.232;2022-09-27T03:14:08;7.5;;;1.6;;
63953;SDS011;50128;52.094;5.232;2022-09-27T03:15:44;5.4;;;1.3;;
63953;SDS011;50128;52.094;5.232;2022-09-27T03:18:56;6.5;;;1.6;;
63953;SDS011;50128;52.094;5.232;2022-09-27T03:20:33;5.5;;;1.4;;
63953;SDS011;50128;52.094;5.232;2022-09-27T03:22:09;7.3;;;2.0;;
63953;SDS011;50128;52.094;5.232;2022-09-27T03:25:22;9.0;;;2.0;;
63953;SDS011;50128;52.094;5.232;2022-09-27T03:26:58;7.8;;;1.7;;
63953;SDS011;50128;52.094;5.232;2022-09-27T03:28:34;6.8;;;1.6;;
63953;SDS011;50128;52.094;5.232;2022-09-27T03:30:11;8.0;;;2.1;;
63953;SDS011;50128;52.094;5.232;2022-09-27T03:33:25;7.5;;;1.6;;
63953;SDS011;50128;52.094;5.232;2022-09-27T03:35:01;7.1;;;1.8;;
63953;SDS011;50128;52.094;5.232;2022-09-27T03:36:38;9.71;;;2.1;;
63953;SDS011;50128;52.094;5.232;2022-09-27T03:39:52;10.5;;;2.21;;
63953;SDS011;50128;52.094;5.232;2022-09-27T03:41:29;11.3;;;2.0;;
63953;SDS011;50128;52.094;5.232;2022-09-27T03:43:05;9.1;;;1.9;;
63953;SDS011;50128;52.094;5.232;2022-09-27T03:46:18;6.7;;;1.6;;
63953;SDS011;50128;52.094;5.232;2022-09-27T03:47:54;9.1;;;1.7;;
63953;SDS011;50128;52.094;5.232;2022-09-27T03:49:31;11.0;;;2.1;;
63953;SDS011;50128;52.094;5.232;2022-09-27T03:51:07;9.31;;;1.9;;
63953;SDS011;50128;52.094;5.232;2022-09-27T03:54:21;7.8;;;1.7;;
63953;SDS011;50128;52.094;5.232;2022-09-27T03:55:57;9.21;;;1.8;;
63953;SDS011;50128;52.094;5.232;2022-09-27T03:57:34;6.8;;;1.6;;
63953;SDS011;50128;52.094;5.232;2022-09-27T04:00:46;7.4;;;1.8;;
63953;SDS011;50128;52.094;5.232;2022-09-27T04:02:22;9.4;;;1.6;;
63953;SDS011;50128;52.094;5.232;2022-09-27T04:03:58;8.1;;;1.8;;
63953;SDS011;50128;52.094;5.232;2022-09-27T04:07:11;9.1;;;1.6;;
63953;SDS011;50128;52.094;5.232;2022-09-27T04:08:47;8.31;;;1.9;;
63953;SDS011;50128;52.094;5.232;2022-09-27T04:10:23;7.0;;;1.9;;
63953;SDS011;50128;52.094;5.232;2022-09-27T04:12:00;8.4;;;1.5;;
63953;SDS011;50128;52.094;5.232;2022-09-27T04:15:12;7.1;;;1.7;;
63953;SDS011;50128;52.094;5.232;2022-09-27T04:16:48;8.31;;;2.0;;
63953;SDS011;50128;52.094;5.232;2022-09-27T04:18:24;8.5;;;1.5;;
63953;SDS011;50128;52.094;5.232;2022-09-27T04:21:39;6.9;;;1.6;;
63953;SDS011;50128;52.094;5.232;2022-09-27T04:23:16;6.5;;;1.7;;
63953;SDS011;50128;52.094;5.232;2022-09-27T04:24:56;8.9;;;1.7;;
63953;SDS011;50128;52.094;5.232;2022-09-27T04:28:08;8.0;;;1.7;;
63953;SDS011;50128;52.094;5.232;2022-09-27T04:29:44;8.71;;;1.8;;
63953;SDS011;50128;52.094;5.232;2022-09-27T04:31:20;7.2;;;1.7;;
63953;SDS011;50128;52.094;5.232;2022-09-27T04:32:56;6.2;;;1.4;;
63953;SDS011;50128;52.094;5.232;2022-09-27T04:37:14;6.4;;;1.6;;
63953;SDS011;50128;52.094;5.232;2022-09-27T04:40:27;7.2;;;1.7;;
63953;SDS011;50128;52.094;5.232;2022-09-27T04:42:04;8.6;;;2.0;;
63953;SDS011;50128;52.094;5.232;2022-09-27T04:43:41;7.9;;;1.7;;
63953;SDS011;50128;52.094;5.232;2022-09-27T04:48:30;8.4;;;1.7;;
63953;SDS011;50128;52.094;5.232;2022-09-27T04:50:07;7.7;;;1.6;;
63953;SDS011;50128;52.094;5.232;2022-09-27T04:51:43;8.4;;;1.8;;
63953;SDS011;50128;52.094;5.232;2022-09-27T04:54:56;9.21;;;1.8;;
63953;SDS011;50128;52.094;5.232;2022-09-27T04:56:32;8.0;;;1.7;;
63953;SDS011;50128;52.094;5.232;2022-09-27T04:58:08;7.3;;;1.4;;
63953;SDS011;50128;52.094;5.232;2022-09-27T05:01:21;6.7;;;1.5;;
63953;SDS011;50128;52.094;5.232;2022-09-27T05:02:57;4.7;;;1.4;;
63953;SDS011;50128;52.094;5.232;2022-09-27T05:04:33;7.4;;;1.6;;
63953;SDS011;50128;52.094;5.232;2022-09-27T05:07:45;7.7;;;1.7;;
63953;SDS011;50128;52.094;5.232;2022-09-27T05:09:22;7.6;;;1.5;;
63953;SDS011;50128;52.094;5.232;2022-09-27T05:10:58;9.1;;;1.7;;
63953;SDS011;50128;52.094;5.232;2022-09-27T05:14:13;6.7;;;1.5;;
63953;SDS011;50128;52.094;5.232;2022-09-27T05:15:49;7.4;;;1.4;;
63953;SDS011;50128;52.094;5.232;2022-09-27T05:17:25;6.7;;;1.4;;
63953;SDS011;50128;52.094;5.232;2022-09-27T05:19:01;6.5;;;1.4;;
63953;SDS011;50128;52.094;5.232;2022-09-27T05:22:15;5.2;;;1.4;;
63953;SDS011;50128;52.094;5.232;2022-09-27T05:23:53;5.7;;;1.4;;
63953;SDS011;50128;52.094;5.232;2022-09-27T05:25:30;5.3;;;1.4;;
63953;SDS011;50128;52.094;5.232;2022-09-27T05:28:48;6.6;;;1.7;;
63953;SDS011;50128;52.094;5.232;2022-09-27T05:30:24;6.3;;;1.7;;
63953;SDS011;50128;52.094;5.232;2022-09-27T05:32:01;5.4;;;1.6;;
63953;SDS011;50128;52.094;5.232;2022-09-27T05:33:38;5.4;;;1.6;;
63953;SDS011;50128;52.094;5.232;2022-09-27T05:36:53;6.5;;;1.8;;
63953;SDS011;50128;52.094;5.232;2022-09-27T05:38:29;6.7;;;1.9;;
63953;SDS011;50128;52.094;5.232;2022-09-27T05:40:06;7.1;;;2.1;;
63953;SDS011;50128;52.094;5.232;2022-09-27T05:43:21;12.4;;;2.7;;
63953;SDS011;50128;52.094;5.232;2022-09-27T05:44:57;10.0;;;2.1;;
63953;SDS011;50128;52.094;5.232;2022-09-27T05:46:33;8.5;;;1.9;;
63953;SDS011;50128;52.094;5.232;2022-09-27T05:49:48;5.9;;;1.5;;
63953;SDS011;50128;52.094;5.232;2022-09-27T05:51:25;7.0;;;1.7;;
63953;SDS011;50128;52.094;5.232;2022-09-27T05:53:01;6.3;;;1.6;;
63953;SDS011;50128;52.094;5.232;2022-09-27T05:54:39;7.5;;;1.8;;
63953;SDS011;50128;52.094;5.232;2022-09-27T05:57:53;7.0;;;2.1;;
63953;SDS011;50128;52.094;5.232;2022-09-27T05:59:30;8.1;;;1.8;;
63953;SDS011;50128;52.094;5.232;2022-09-27T06:01:07;7.0;;;1.8;;
63953;SDS011;50128;52.094;5.232;2022-09-27T06:04:20;6.7;;;1.3;;
63953;SDS011;50128;52.094;5.232;2022-09-27T06:06:00;6.6;;;1.5;;
63953;SDS011;50128;52.094;5.232;2022-09-27T06:07:38;7.5;;;1.7;;
63953;SDS011;50128;52.094;5.232;2022-09-27T06:09:16;5.7;;;1.3;;
63953;SDS011;50128;52.094;5.232;2022-09-27T06:12:36;6.0;;;1.5;;
63953;SDS011;50128;52.094;5.232;2022-09-27T06:14:13;6.3;;;1.3;;
63953;SDS011;50128;52.094;5.232;2022-09-27T06:15:51;7.9;;;1.8;;
63953;SDS011;50128;52.094;5.232;2022-09-27T06:17:27;6.4;;;1.7;;
63953;SDS011;50128;52.094;5.232;2022-09-27T06:20:40;6.3;;;2.0;;
63953;SDS011;50128;52.094;5.232;2022-09-27T06:22:18;6.1;;;1.8;;
63953;SDS011;50128;52.094;5.232;2022-09-27T06:23:58;6.3;;;1.7;;
63953;SDS011;50128;52.094;5.232;2022-09-27T06:27:12;6.0;;;1.4;;
63953;SDS011;50128;52.094;5.232;2022-09-27T06:28:49;5.6;;;1.4;;
63953;SDS011;50128;52.094;5.232;2022-09-27T06:30:27;7.5;;;1.7;;
63953;SDS011;50128;52.094;5.232;2022-09-27T06:33:39;6.8;;;1.3;;
63953;SDS011;50128;52.094;5.232;2022-09-27T06:35:15;7.2;;;1.4;;
63953;SDS011;50128;52.094;5.232;2022-09-27T06:36:51;5.8;;;1.3;;
63953;SDS011;50128;52.094;5.232;2022-09-27T06:38:28;6.7;;;1.5;;
63953;SDS011;50128;52.094;5.232;2022-09-27T06:41:43;4.7;;;1.8;;
63953;SDS011;50128;52.094;5.232;2022-09-27T06:43:19;8.4;;;2.6;;
63953;SDS011;50128;52.094;5.232;2022-09-27T06:44:56;5.4;;;2.21;;
63953;SDS011;50128;52.094;5.232;2022-09-27T06:48:10;7.0;;;1.8;;
63953;SDS011;50128;52.094;5.232;2022-09-27T06:49:47;7.0;;;1.5;;
63953;SDS011;50128;52.094;5.232;2022-09-27T06:51:25;6.7;;;1.3;;
63953;SDS011;50128;52.094;5.232;2022-09-27T06:53:02;5.9;;;1.4;;
63953;SDS011;50128;52.094;5.232;2022-09-27T06:56:16;9.81;;;4.5;;
63953;SDS011;50128;52.094;5.232;2022-09-27T07:00:47;6.2;;;2.4;;
63953;SDS011;50128;52.094;5.232;2022-09-27T07:02:26;7.5;;;1.8;;
63953;SDS011;50128;52.094;5.232;2022-09-27T07:04:02;8.2;;;1.8;;
63953;SDS011;50128;52.094;5.232;2022-09-27T07:05:39;6.5;;;2.8;;
63953;SDS011;50128;52.094;5.232;2022-09-27T07:08:53;7.5;;;2.4;;
63953;SDS011;50128;52.094;5.232;2022-09-27T07:10:32;6.7;;;2.0;;
63953;SDS011;50128;52.094;5.232;2022-09-27T07:12:11;6.7;;;2.0;;
63953;SDS011;50128;52.094;5.232;2022-09-27T07:15:27;5.5;;;2.0;;
63953;SDS011;50128;52.094;5.232;2022-09-27T07:17:03;7.9;;;2.1;;
63953;SDS011;50128;52.094;5.232;2022-09-27T07:18:39;9.5;;;3.4;;
63953;SDS011;50128;52.094;5.232;2022-09-27T07:20:16;7.6;;;2.4;;
63953;SDS011;50128;52.094;5.232;2022-09-27T07:23:28;5.4;;;1.9;;
63953;SDS011;50128;52.094;5.232;2022-09-27T07:25:04;9.71;;;2.9;;
63953;SDS011;50128;52.094;5.232;2022-09-27T07:26:41;8.0;;;2.5;;
63953;SDS011;50128;52.094;5.232;2022-09-27T07:29:55;7.5;;;2.6;;
63953;SDS011;50128;52.094;5.232;2022-09-27T07:31:31;5.4;;;1.9;;
63953;SDS011;50128;52.094;5.232;2022-09-27T07:33:08;7.5;;;2.1;;
63953;SDS011;50128;52.094;5.232;2022-09-27T07:36:21;6.3;;;1.8;;
63953;SDS011;50128;52.094;5.232;2022-09-27T07:37:58;6.4;;;1.9;;
63953;SDS011;50128;52.094;5.232;2022-09-27T07:39:34;7.9;;;2.31;;
63953;SDS011;50128;52.094;5.232;2022-09-27T07:41:13;9.6;;;2.4;;
63953;SDS011;50128;52.094;5.232;2022-09-27T07:44:30;6.9;;;2.21;;
63953;SDS011;50128;52.094;5.232;2022-09-27T07:46:07;6.9;;;2.0;;
63953;SDS011;50128;52.094;5.232;2022-09-27T07:47:43;7.7;;;2.21;;
63953;SDS011;50128;52.094;5.232;2022-09-27T07:50:55;10.1;;;2.8;;
63953;SDS011;50128;52.094;5.232;2022-09-27T07:52:37;7.3;;;2.21;;
63953;SDS011;50128;52.094;5.232;2022-09-27T07:55:52;6.9;;;2.0;;
63953;SDS011;50128;52.094;5.232;2022-09-27T07:59:05;7.3;;;2.31;;
63953;SDS011;50128;52.094;5.232;2022-09-27T08:00:42;8.5;;;2.1;;
63953;SDS011;50128;52.094;5.232;2022-09-27T08:02:19;8.81;;;2.5;;
63953;SDS011;50128;52.094;5.232;2022-09-27T08:05:34;7.2;;;2.21;;
63953;SDS011;50128;52.094;5.232;2022-09-27T08:07:10;7.3;;;1.7;;
63953;SDS011;50128;52.094;5.232;2022-09-27T08:08:46;7.7;;;2.21;;
63953;SDS011;50128;52.094;5.232;2022-09-27T08:12:06;7.5;;;1.8;;
63953;SDS011;50128;52.094;5.232;2022-09-27T08:13:42;7.5;;;1.8;;
63953;SDS011;50128;52.094;5.232;2022-09-27T08:15:19;5.9;;;1.8;;
63953;SDS011;50128;52.094;5.232;2022-09-27T08:16:55;4.61;;;1.6;;
63953;SDS011;50128;52.094;5.232;2022-09-27T08:20:08;5.2;;;1.5;;
63953;SDS011;50128;52.094;5.232;2022-09-27T08:21:44;6.9;;;1.7;;
63953;SDS011;50128;52.094;5.232;2022-09-27T08:23:20;7.1;;;1.8;;
63953;SDS011;50128;52.094;5.232;2022-09-27T08:26:33;6.1;;;1.7;;
63953;SDS011;50128;52.094;5.232;2022-09-27T08:28:10;6.6;;;1.5;;
63953;SDS011;50128;52.094;5.232;2022-09-27T08:29:46;7.5;;;1.6;;
63953;SDS011;50128;52.094;5.232;2022-09-27T08:31:24;5.11;;;1.6;;
63953;SDS011;50128;52.094;5.232;2022-09-27T08:34:37;3.8;;;1.2;;
63953;SDS011;50128;52.094;5.232;2022-09-27T08:36:14;5.8;;;1.3;;
63953;SDS011;50128;52.094;5.232;2022-09-27T08:37:53;7.0;;;1.4;;
63953;SDS011;50128;52.094;5.232;2022-09-27T08:41:07;8.6;;;1.6;;
63953;SDS011;50128;52.094;5.232;2022-09-27T08:42:53;7.2;;;1.5;;
63953;SDS011;50128;52.094;5.232;2022-09-27T08:44:42;7.4;;;2.0;;
63953;SDS011;50128;52.094;5.232;2022-09-27T08:46:31;8.9;;;1.7;;
63953;SDS011;50128;52.094;5.232;2022-09-27T08:48:20;8.71;;;2.21;;
63953;SDS011;50128;52.094;5.232;2022-09-27T08:51:57;5.8;;;1.6;;
63953;SDS011;50128;52.094;5.232;2022-09-27T08:53:36;6.7;;;1.7;;
63953;SDS011;50128;52.094;5.232;2022-09-27T08:57:02;5.2;;;1.3;;
63953;SDS011;50128;52.094;5.232;2022-09-27T08:58:44;6.4;;;1.5;;
63953;SDS011;50128;52.094;5.232;2022-09-27T09:02:05;5.4;;;1.6;;
63953;SDS011;50128;52.094;5.232;2022-09-27T09:03:52;4.8;;;1.11;;
63953;SDS011;50128;52.094;5.232;2022-09-27T09:05:31;5.9;;;1.5;;
63953;SDS011;50128;52.094;5.232;2022-09-27T09:07:13;4.41;;;1.2;;
63953;SDS011;50128;52.094;5.232;2022-09-27T09:09:07;5.3;;;1.6;;
63953;SDS011;50128;52.094;5.232;2022-09-27T09:13:51;6.0;;;1.2;;
63953;SDS011;50128;52.094;5.232;2022-09-27T09:17:29;6.5;;;1.5;;
63953;SDS011;50128;52.094;5.232;2022-09-27T09:21:20;7.9;;;1.7;;
63953;SDS011;50128;52.094;5.232;2022-09-27T09:23:09;6.2;;;1.2;;
63953;SDS011;50128;52.094;5.232;2022-09-27T09:25:10;5.0;;;1.0;;
63953;SDS011;50128;52.094;5.232;2022-09-27T09:26:58;5.11;;;1.3;;
63953;SDS011;50128;52.094;5.232;2022-09-27T09:28:48;3.7;;;1.0;;
63953;SDS011;50128;52.094;5.232;2022-09-27T09:30:39;4.41;;;1.0;;
63953;SDS011;50128;52.094;5.232;2022-09-27T09:32:27;3.5;;;0.9;;
63953;SDS011;50128;52.094;5.232;2022-09-27T09:34:16;3.5;;;0.9;;
63953;SDS011;50128;52.094;5.232;2022-09-27T09:37:44;4.1;;;0.7;;
63953;SDS011;50128;52.094;5.232;2022-09-27T09:39:25;6.0;;;1.11;;
63953;SDS011;50128;52.094;5.232;2022-09-27T09:41:10;4.1;;;0.9;;
63953;SDS011;50128;52.094;5.232;2022-09-27T09:42:53;4.61;;;1.0;;
63953;SDS011;50128;52.094;5.232;2022-09-27T09:44:38;4.0;;;1.11;;
63953;SDS011;50128;52.094;5.232;2022-09-27T09:48:05;3.9;;;1.0;;
63953;SDS011;50128;52.094;5.232;2022-09-27T09:49:52;4.3;;;0.9;;
63953;SDS011;50128;52.094;5.232;2022-09-27T09:51:35;3.5;;;1.3;;
63953;SDS011;50128;52.094;5.232;2022-09-27T09:53:20;3.7;;;0.9;;
63953;SDS011;50128;52.094;5.232;2022-09-27T09:55:05;4.0;;;0.9;;
63953;SDS011;50128;52.094;5.232;2022-09-27T10:00:19;3.6;;;0.7;;
63953;SDS011;50128;52.094;5.232;2022-09-27T10:01:57;4.2;;;1.2;;
63953;SDS011;50128;52.094;5.232;2022-09-27T10:03:50;3.3;;;0.8;;
63953;SDS011;50128;52.094;5.232;2022-09-27T10:07:03;3.0;;;0.7;;
63953;SDS011;50128;52.094;5.232;2022-09-27T10:08:39;5.3;;;1.11;;
63953;SDS011;50128;52.094;5.232;2022-09-27T10:10:16;5.3;;;1.11;;
63953;SDS011;50128;52.094;5.232;2022-09-27T10:11:55;5.3;;;1.3;;
63953;SDS011;50128;52.094;5.232;2022-09-27T10:15:13;4.2;;;1.11;;
63953;SDS011;50128;52.094;5.232;2022-09-27T10:16:53;4.2;;;0.7;;
63953;SDS011;50128;52.094;5.232;2022-09-27T10:18:34;4.41;;;1.11;;
63953;SDS011;50128;52.094;5.232;2022-09-27T10:20:16;4.5;;;1.0;;
63953;SDS011;50128;52.094;5.232;2022-09-27T10:24:07;5.0;;;1.2;;
63953;SDS011;50128;52.094;5.232;2022-09-27T10:25:49;5.4;;;1.0;;
63953;SDS011;50128;52.094;5.232;2022-09-27T10:27:36;3.5;;;0.9;;
63953;SDS011;50128;52.094;5.232;2022-09-27T10:29:16;4.41;;;1.11;;
63953;SDS011;50128;52.094;5.232;2022-09-27T10:30:59;3.4;;;1.0;;
63953;SDS011;50128;52.094;5.232;2022-09-27T10:34:16;5.5;;;1.4;;
63953;SDS011;50128;52.094;5.232;2022-09-27T10:35:59;5.5;;;1.4;;
63953;SDS011;50128;52.094;5.232;2022-09-27T10:37:37;4.7;;;1.4;;
63953;SDS011;50128;52.094;5.232;2022-09-27T10:39:20;5.11;;;1.4;;
63953;SDS011;50128;52.094;5.232;2022-09-27T10:42:52;4.2;;;1.3;;
63953;SDS011;50128;52.094;5.232;2022-09-27T10:44:29;4.8;;;1.2;;
63953;SDS011;50128;52.094;5.232;2022-09-27T10:46:11;3.9;;;1.0;;
63953;SDS011;50128;52.094;5.232;2022-09-27T10:47:58;3.4;;;0.8;;
63953;SDS011;50128;52.094;5.232;2022-09-27T10:49:37;5.4;;;1.2;;
63953;SDS011;50128;52.094;5.232;2022-09-27T10:53:05;5.2;;;1.5;;
63953;SDS011;50128;52.094;5.232;2022-09-27T10:54:52;3.4;;;1.2;;
63953;SDS011;50128;52.094;5.232;2022-09-27T10:56:32;5.11;;;1.2;;
63953;SDS011;50128;52.094;5.232;2022-09-27T10:58:14;3.9;;;1.11;;
63953;SDS011;50128;52.094;5.232;2022-09-27T10:59:54;4.61;;;1.3;;
63953;SDS011;50128;52.094;5.232;2022-09-27T11:03:18;4.8;;;1.5;;
63953;SDS011;50128;52.094;5.232;2022-09-27T11:05:04;4.1;;;1.2;;
63953;SDS011;50128;52.094;5.232;2022-09-27T11:06:44;4.1;;;1.2;;
63953;SDS011;50128;52.094;5.232;2022-09-27T11:08:23;5.9;;;1.5;;
63953;SDS011;50128;52.094;5.232;2022-09-27T11:12:07;5.8;;;1.3;;
63953;SDS011;50128;52.094;5.232;2022-09-27T11:13:56;5.3;;;1.6;;
63953;SDS011;50128;52.094;5.232;2022-09-27T11:15:36;5.5;;;1.3;;
63953;SDS011;50128;52.094;5.232;2022-09-27T11:17:25;3.9;;;1.2;;
63953;SDS011;50128;52.094;5.232;2022-09-27T11:19:14;4.7;;;1.11;;
63953;SDS011;50128;52.094;5.232;2022-09-27T11:21:06;4.41;;;1.2;;
63953;SDS011;50128;52.094;5.232;2022-09-27T11:24:01;3.8;;;1.11;;
63953;SDS011;50128;52.094;5.232;2022-09-27T11:25:56;4.8;;;1.0;;
63953;SDS011;50128;52.094;5.232;2022-09-27T11:27:49;3.8;;;1.11;;
63953;SDS011;50128;52.094;5.232;2022-09-27T11:29:38;4.5;;;1.2;;
63953;SDS011;50128;52.094;5.232;2022-09-27T11:31:31;5.4;;;1.5;;
63953;SDS011;50128;52.094;5.232;2022-09-27T11:33:31;5.0;;;1.2;;
63953;SDS011;50128;52.094;5.232;2022-09-27T11:36:17;3.5;;;0.8;;
63953;SDS011;50128;52.094;5.232;2022-09-27T11:38:14;3.2;;;0.9;;
63953;SDS011;50128;52.094;5.232;2022-09-27T11:40:00;3.5;;;1.0;;
63953;SDS011;50128;52.094;5.232;2022-09-27T11:41:51;2.7;;;0.9;;
63953;SDS011;50128;52.094;5.232;2022-09-27T11:45:40;3.5;;;0.7;;
63953;SDS011;50128;52.094;5.232;2022-09-27T11:47:29;4.0;;;0.8;;
63953;SDS011;50128;52.094;5.232;2022-09-27T11:49:54;2.9;;;0.6;;
63953;SDS011;50128;52.094;5.232;2022-09-27T11:52:57;3.8;;;1.0;;
63953;SDS011;50128;52.094;5.232;2022-09-27T11:54:54;3.2;;;0.7;;
63953;SDS011;50128;52.094;5.232;2022-09-27T11:56:47;2.8;;;0.8;;
63953;SDS011;50128;52.094;5.232;2022-09-27T11:58:36;3.6;;;1.0;;
63953;SDS011;50128;52.094;5.232;2022-09-27T12:00:35;3.7;;;0.9;;
63953;SDS011;50128;52.094;5.232;2022-09-27T12:04:28;3.8;;;0.9;;
63953;SDS011;50128;52.094;5.232;2022-09-27T12:06:38;4.91;;;1.4;;
63953;SDS011;50128;52.094;5.232;2022-09-27T12:08:27;4.2;;;1.2;;
63953;SDS011;50128;52.094;5.232;2022-09-27T12:10:16;3.4;;;1.2;;
63953;SDS011;50128;52.094;5.232;2022-09-27T12:11:54;3.3;;;1.0;;
63953;SDS011;50128;52.094;5.232;2022-09-27T12:13:38;3.6;;;0.8;;
63953;SDS011;50128;52.094;5.232;2022-09-27T12:15:18;3.0;;;1.0;;
63953;SDS011;50128;52.094;5.232;2022-09-27T12:18:38;3.6;;;0.9;;
63953;SDS011;50128;52.094;5.232;2022-09-27T12:20:18;4.3;;;1.4;;
63953;SDS011;50128;52.094;5.232;2022-09-27T12:22:00;4.0;;;1.3;;
63953;SDS011;50128;52.094;5.232;2022-09-27T12:23:39;4.1;;;1.6;;
63953;SDS011;50128;52.094;5.232;2022-09-27T12:26:55;3.4;;;1.11;;
63953;SDS011;50128;52.094;5.232;2022-09-27T12:28:40;4.3;;;1.2;;
63953;SDS011;50128;52.094;5.232;2022-09-27T12:30:23;3.4;;;1.2;;
63953;SDS011;50128;52.094;5.232;2022-09-27T12:32:01;6.6;;;1.2;;
63953;SDS011;50128;52.094;5.232;2022-09-27T12:35:31;4.5;;;1.0;;
63953;SDS011;50128;52.094;5.232;2022-09-27T12:37:17;4.61;;;1.2;;
63953;SDS011;50128;52.094;5.232;2022-09-27T12:38:59;3.7;;;1.4;;
63953;SDS011;50128;52.094;5.232;2022-09-27T12:40:42;5.9;;;1.5;;
63953;SDS011;50128;52.094;5.232;2022-09-27T12:42:23;5.11;;;1.5;;
63953;SDS011;50128;52.094;5.232;2022-09-27T12:45:49;3.6;;;1.0;;
63953;SDS011;50128;52.094;5.232;2022-09-27T12:47:38;7.2;;;3.1;;
63953;SDS011;50128;52.094;5.232;2022-09-27T12:49:30;9.5;;;4.5;;
63953;SDS011;50128;52.094;5.232;2022-09-27T12:51:20;7.8;;;2.6;;
63953;SDS011;50128;52.094;5.232;2022-09-27T12:53:00;3.5;;;1.3;;
63953;SDS011;50128;52.094;5.232;2022-09-27T12:56:43;4.3;;;1.11;;
63953;SDS011;50128;52.094;5.232;2022-09-27T12:58:36;3.8;;;1.0;;
63953;SDS011;50128;52.094;5.232;2022-09-27T13:01:32;6.3;;;1.6;;
63953;SDS011;50128;52.094;5.232;2022-09-27T13:03:32;5.5;;;1.6;;
63953;SDS011;50128;52.094;5.232;2022-09-27T13:05:32;5.8;;;1.6;;
63953;SDS011;50128;52.094;5.232;2022-09-27T13:08:08;4.2;;;1.2;;
63953;SDS011;50128;52.094;5.232;2022-09-27T13:10:13;4.91;;;1.3;;
63953;SDS011;50128;52.094;5.232;2022-09-27T13:12:05;4.0;;;1.11;;
63953;SDS011;50128;52.094;5.232;2022-09-27T13:15:25;4.0;;;1.2;;
63953;SDS011;50128;52.094;5.232;2022-09-27T13:17:30;3.8;;;1.11;;
63953;SDS011;50128;52.094;5.232;2022-09-27T13:19:12;4.1;;;1.3;;